createdAt,value
2019-01-06T00:02:02.995Z,18.83
2019-01-06T00:05:11.471Z,17.93
2019-01-06T00:08:19.359Z,19.17
2019-01-06T00:11:24.789Z,17.97
2019-01-06T00:14:26.439Z,18.23
2019-01-06T00:17:44.631Z,16.57
2019-01-06T00:21:01.662Z,17.83
2019-01-06T00:24:20.863Z,18.37
2019-01-06T00:27:28.447Z,18.23
2019-01-06T00:30:36.326Z,17.40
2019-01-06T00:33:44.455Z,18.97
2019-01-06T00:37:08.699Z,18.37
2019-01-06T00:40:23.983Z,17.37
2019-01-06T00:43:32.401Z,17.83
2019-01-06T00:47:00.255Z,18.27
2019-01-06T00:50:07.734Z,18.27
2019-01-06T00:53:28.833Z,18.60
2019-01-06T00:56:53.505Z,16.67
2019-01-06T01:00:12.688Z,16.17
2019-01-06T01:03:20.627Z,17.50
2019-01-06T01:06:35.866Z,18.47
2019-01-06T01:09:48.472Z,17.57
2019-01-06T01:12:48.614Z,17.37
2019-01-06T01:16:00.722Z,17.80
2019-01-06T01:18:57.479Z,16.63
2019-01-06T01:22:05.693Z,16.03
2019-01-06T01:25:33.705Z,17.63
2019-01-06T01:28:36.565Z,17.20
2019-01-06T01:31:44.451Z,16.17
2019-01-06T01:34:47.714Z,17.07
2019-01-06T01:37:49.910Z,18.33
2019-01-06T01:40:48.726Z,17.37
2019-01-06T01:44:03.412Z,17.10
2019-01-06T01:47:23.678Z,16.77
2019-01-06T01:50:51.430Z,16.23
2019-01-06T01:54:16.034Z,17.33
2019-01-06T01:57:24.101Z,17.13
2019-01-06T02:00:33.462Z,17.67
2019-01-06T02:03:48.887Z,16.90
2019-01-06T02:06:58.090Z,16.83
2019-01-06T02:10:10.094Z,16.40
2019-01-06T02:13:11.662Z,15.83
2019-01-06T02:16:19.593Z,16.20
2019-01-06T02:19:31.567Z,15.90
2019-01-06T02:22:40.670Z,16.40
2019-01-06T02:26:08.505Z,16.23
2019-01-06T02:29:29.838Z,16.00
2019-01-06T02:32:37.765Z,16.50
2019-01-06T02:35:45.908Z,15.57
2019-01-06T02:38:54.977Z,15.83
2019-01-06T02:42:16.482Z,16.20
2019-01-06T02:45:24.854Z,15.80
2019-01-06T02:48:33.467Z,15.70
2019-01-06T02:51:42.075Z,15.10
2019-01-06T02:54:50.010Z,16.73
2019-01-06T02:57:59.598Z,15.43
2019-01-06T03:01:20.767Z,16.13
2019-01-06T03:04:28.467Z,14.73
2019-01-06T03:07:36.418Z,14.80
2019-01-06T03:10:44.240Z,14.07
2019-01-06T03:13:59.366Z,13.53
2019-01-06T03:17:02.722Z,14.43
2019-01-06T03:20:18.174Z,14.03
2019-01-06T03:23:30.783Z,13.20
2019-01-06T03:26:52.007Z,13.03
2019-01-06T03:30:19.471Z,12.97
2019-01-06T03:33:27.383Z,13.67
2019-01-06T03:36:35.984Z,13.47
2019-01-06T03:39:45.127Z,14.30
2019-01-06T03:42:53.997Z,13.40
2019-01-06T03:46:01.912Z,13.53
2019-01-06T03:49:13.977Z,13.50
2019-01-06T03:52:13.051Z,13.70
2019-01-06T03:55:40.365Z,14.63
2019-01-06T03:58:58.877Z,12.90
2019-01-06T04:02:16.962Z,13.97
2019-01-06T04:05:24.892Z,13.57
2019-01-06T04:08:32.885Z,13.33
2019-01-06T04:11:40.699Z,13.17
2019-01-06T04:14:58.836Z,13.80
2019-01-06T04:18:22.777Z,13.13
2019-01-06T04:21:31.742Z,12.97
2019-01-06T04:24:56.397Z,14.03
2019-01-06T04:28:04.507Z,12.97
2019-01-06T04:31:10.269Z,12.50
2019-01-06T04:34:37.948Z,13.50
2019-01-06T04:37:49.960Z,12.93
2019-01-06T04:41:03.399Z,13.20
2019-01-06T04:44:24.490Z,13.43
2019-01-06T04:47:32.893Z,14.37
2019-01-06T04:50:57.564Z,12.60
2019-01-06T04:54:05.484Z,13.87
2019-01-06T04:57:13.521Z,13.90
2019-01-06T05:00:21.332Z,14.53
2019-01-06T05:03:30.204Z,13.13
2019-01-06T05:06:49.625Z,14.10
2019-01-06T05:09:58.606Z,14.97
2019-01-06T05:13:07.248Z,14.77
2019-01-06T05:16:08.246Z,14.70
2019-01-06T05:19:20.536Z,15.53
2019-01-06T05:22:28.810Z,14.60
2019-01-06T05:25:38.270Z,15.07
2019-01-06T05:28:46.506Z,14.43
2019-01-06T05:31:55.157Z,14.47
2019-01-06T05:35:03.095Z,15.33
2019-01-06T05:38:18.110Z,15.80
2019-01-06T05:41:30.458Z,15.37
2019-01-06T05:44:39.433Z,16.33
2019-01-06T05:47:51.686Z,15.60
2019-01-06T05:51:00.101Z,15.33
2019-01-06T05:54:08.489Z,14.57
2019-01-06T05:57:30.185Z,15.73
2019-01-06T06:00:39.402Z,14.90
2019-01-06T06:03:47.032Z,15.10
2019-01-06T06:06:59.052Z,15.80
2019-01-06T06:10:06.778Z,16.10
2019-01-06T06:13:09.765Z,15.87
2019-01-06T06:16:31.401Z,15.93
2019-01-06T06:19:39.429Z,17.80
2019-01-06T06:22:46.958Z,16.30
2019-01-06T06:25:56.217Z,16.40
2019-01-06T06:29:14.573Z,16.40
2019-01-06T06:32:23.521Z,17.77
2019-01-06T06:35:31.220Z,17.27
2019-01-06T06:38:58.812Z,17.17
2019-01-06T06:42:11.927Z,17.97
2019-01-06T06:45:12.406Z,19.03
2019-01-06T06:48:30.734Z,20.70
2019-01-06T06:51:38.491Z,21.47
2019-01-06T06:54:53.652Z,20.83
2019-01-06T06:58:33.631Z,21.20
2019-01-06T07:02:25.407Z,22.63
2019-01-06T07:05:40.653Z,22.73
2019-01-06T07:08:57.187Z,23.27
2019-01-06T07:12:06.653Z,22.67
2019-01-06T07:15:14.964Z,21.83
2019-01-06T07:18:35.205Z,23.17
2019-01-06T07:22:02.662Z,24.27
2019-01-06T07:25:06.438Z,23.43
2019-01-06T07:28:18.940Z,23.77
2019-01-06T07:31:34.221Z,24.70
2019-01-06T07:34:42.921Z,24.07
2019-01-06T07:37:52.180Z,24.00
2019-01-06T07:40:59.684Z,24.90
2019-01-06T07:44:07.938Z,24.43
2019-01-06T07:47:35.885Z,24.63
2019-01-06T07:50:45.094Z,24.60
2019-01-06T07:53:54.272Z,25.17
2019-01-06T07:57:10.749Z,27.20
2019-01-06T08:00:18.858Z,25.37
2019-01-06T08:03:27.786Z,26.77
2019-01-06T08:06:36.848Z,27.43
2019-01-06T08:09:45.876Z,27.43
2019-01-06T08:13:05.520Z,26.57
2019-01-06T08:16:13.064Z,27.67
2019-01-06T08:19:34.404Z,28.20
2019-01-06T08:22:42.225Z,27.40
2019-01-06T08:25:47.878Z,25.77
2019-01-06T08:29:09.217Z,27.00
2019-01-06T08:32:08.912Z,26.73
2019-01-06T08:35:27.705Z,26.80
2019-01-06T08:38:35.858Z,29.07
2019-01-06T08:41:54.481Z,28.87
2019-01-06T08:45:11.906Z,27.10
2019-01-06T08:48:36.987Z,28.50
2019-01-06T08:51:52.793Z,29.20
2019-01-06T08:55:08.031Z,27.03
2019-01-06T08:58:19.574Z,26.50
2019-01-06T09:01:27.138Z,30.77
2019-01-06T09:04:32.071Z,27.90
2019-01-06T09:07:36.324Z,28.83
2019-01-06T09:10:51.971Z,27.03
2019-01-06T09:14:00.948Z,28.07
2019-01-06T09:17:24.952Z,26.20
2019-01-06T09:20:52.204Z,28.50
2019-01-06T09:24:11.274Z,26.87
2019-01-06T09:27:29.531Z,27.83
2019-01-06T09:30:40.863Z,28.70
2019-01-06T09:33:48.709Z,29.10
2019-01-06T09:36:57.874Z,29.53
2019-01-06T09:40:12.753Z,30.20
2019-01-06T09:43:24.261Z,32.40
2019-01-06T09:46:33.733Z,30.17
2019-01-06T09:49:45.955Z,29.83
2019-01-06T09:53:01.364Z,29.53
2019-01-06T09:56:25.147Z,28.97
2019-01-06T09:59:52.693Z,34.03
2019-01-06T10:03:19.976Z,29.87
2019-01-06T10:06:28.017Z,31.57
2019-01-06T10:09:37.109Z,30.13
2019-01-06T10:12:41.118Z,29.40
2019-01-06T10:16:02.899Z,29.07
2019-01-06T10:19:12.922Z,28.83
2019-01-06T10:22:20.943Z,31.03
2019-01-06T10:25:35.544Z,30.63
2019-01-06T10:28:38.654Z,28.73
2019-01-06T10:31:42.355Z,30.67
2019-01-06T10:34:51.730Z,31.67
2019-01-06T10:37:59.638Z,30.20
2019-01-06T10:41:08.736Z,31.10
2019-01-06T10:44:24.047Z,34.20
2019-01-06T10:47:32.993Z,31.53
2019-01-06T10:50:57.390Z,32.97
2019-01-06T10:54:09.462Z,30.80
2019-01-06T10:57:30.828Z,28.47
2019-01-06T11:00:48.921Z,30.97
2019-01-06T11:03:56.776Z,27.70
2019-01-06T11:07:15.226Z,29.90
2019-01-06T11:10:31.025Z,29.23
2019-01-06T11:13:59.082Z,28.43
2019-01-06T11:17:08.219Z,29.57
2019-01-06T11:20:16.022Z,32.13
2019-01-06T11:23:45.322Z,28.87
2019-01-06T11:26:56.244Z,30.57
2019-01-06T11:30:18.062Z,28.53
2019-01-06T11:33:42.505Z,29.87
2019-01-06T11:36:53.878Z,31.27
2019-01-06T11:40:06.034Z,30.67
2019-01-06T11:43:08.515Z,28.57
2019-01-06T11:46:17.098Z,29.00
2019-01-06T11:49:25.766Z,28.17
2019-01-06T11:52:34.021Z,28.53
2019-01-06T11:55:42.590Z,30.83
2019-01-06T11:58:51.878Z,28.77
2019-01-06T12:01:54.538Z,25.90
2019-01-06T12:05:02.547Z,29.67
2019-01-06T12:08:10.751Z,28.40
2019-01-06T12:11:23.617Z,27.77
2019-01-06T12:14:33.000Z,28.03
2019-01-06T12:17:51.081Z,26.10
2019-01-06T12:21:06.065Z,25.50
2019-01-06T12:24:15.416Z,24.07
2019-01-06T12:27:33.215Z,23.17
2019-01-06T12:30:35.753Z,23.50
2019-01-06T12:33:56.873Z,24.60
2019-01-06T12:37:21.255Z,23.53
2019-01-06T12:40:30.025Z,22.53
2019-01-06T12:43:37.867Z,24.40
2019-01-06T12:46:49.946Z,41.53
2019-01-06T12:49:56.859Z,30.80
2019-01-06T12:53:06.747Z,23.60
2019-01-06T12:56:22.109Z,19.73
2019-01-06T12:59:25.326Z,25.57
2019-01-06T13:02:32.365Z,21.03
2019-01-06T13:05:40.957Z,20.77
2019-01-06T13:09:05.353Z,18.30
2019-01-06T13:12:17.550Z,18.13
2019-01-06T13:15:24.963Z,17.57
2019-01-06T13:18:33.446Z,17.50
2019-01-06T13:21:38.101Z,18.57
2019-01-06T13:24:46.324Z,18.33
2019-01-06T13:28:04.607Z,17.40
2019-01-06T13:31:17.158Z,16.97
2019-01-06T13:34:25.174Z,16.93
2019-01-06T13:37:33.248Z,16.17
2019-01-06T13:41:02.733Z,15.67
2019-01-06T13:44:06.466Z,16.47
2019-01-06T13:47:28.124Z,15.00
2019-01-06T13:50:39.942Z,14.80
2019-01-06T13:53:47.512Z,14.50
2019-01-06T13:57:05.810Z,13.90
2019-01-06T14:00:18.054Z,14.07
2019-01-06T14:03:27.333Z,13.30
2019-01-06T14:06:47.887Z,14.37
2019-01-06T14:09:56.222Z,14.40
2019-01-06T14:13:09.087Z,14.63
2019-01-06T14:16:36.346Z,14.87
2019-01-06T14:19:54.299Z,15.53
2019-01-06T14:23:09.555Z,17.40
2019-01-06T14:26:21.818Z,16.60
2019-01-06T14:29:43.118Z,15.20
2019-01-06T14:33:04.819Z,14.17
2019-01-06T14:36:20.126Z,14.47
2019-01-06T14:39:38.509Z,14.77
2019-01-06T14:42:45.976Z,14.40
2019-01-06T14:45:54.280Z,13.37
2019-01-06T14:49:02.140Z,13.37
2019-01-06T14:52:28.931Z,14.43
2019-01-06T14:55:48.625Z,13.63
2019-01-06T14:58:48.722Z,13.87
2019-01-06T15:01:56.597Z,13.20
2019-01-06T15:05:16.721Z,16.60
2019-01-06T15:08:24.750Z,13.17
2019-01-06T15:11:49.321Z,12.90
2019-01-06T15:14:57.103Z,13.50
2019-01-06T15:18:05.020Z,14.43
2019-01-06T15:21:10.691Z,21.33
2019-01-06T15:24:18.766Z,14.33
2019-01-06T15:27:34.582Z,14.87
2019-01-06T15:30:43.933Z,13.07
2019-01-06T15:33:59.189Z,12.80
2019-01-06T15:37:17.806Z,13.13
2019-01-06T15:40:26.419Z,11.90
2019-01-06T15:43:41.530Z,14.67
2019-01-06T15:46:49.220Z,14.57
2019-01-06T15:49:57.390Z,16.13
2019-01-06T15:53:16.742Z,16.50
2019-01-06T15:56:22.419Z,17.93
2019-01-06T15:59:30.596Z,17.27
2019-01-06T16:02:39.827Z,16.70
2019-01-06T16:05:47.822Z,29.67
2019-01-06T16:09:03.123Z,23.67
2019-01-06T16:12:11.058Z,21.37
2019-01-06T16:15:23.666Z,21.67
2019-01-06T16:18:32.573Z,20.67
2019-01-06T16:21:45.606Z,22.23
2019-01-06T16:24:54.154Z,22.93
2019-01-06T16:28:02.509Z,23.57
2019-01-06T16:31:08.806Z,22.80
2019-01-06T16:34:17.854Z,20.37
2019-01-06T16:37:36.286Z,19.87
2019-01-06T16:40:43.910Z,17.67
2019-01-06T16:44:05.430Z,18.17
2019-01-06T16:47:26.893Z,16.93
2019-01-06T16:50:41.710Z,17.80
2019-01-06T16:54:05.518Z,16.90
2019-01-06T16:57:12.054Z,17.57
2019-01-06T17:00:26.846Z,17.50
2019-01-06T17:03:28.178Z,16.20
2019-01-06T17:06:40.279Z,16.53
2019-01-06T17:09:48.334Z,16.20
2019-01-06T17:12:56.302Z,17.10
2019-01-06T17:16:14.446Z,17.50
2019-01-06T17:19:26.608Z,17.20
2019-01-06T17:22:37.234Z,18.10
2019-01-06T17:25:45.003Z,18.17
2019-01-06T17:28:54.432Z,18.27
2019-01-06T17:32:15.955Z,18.67
2019-01-06T17:35:25.374Z,18.97
2019-01-06T17:38:46.894Z,18.07
2019-01-06T17:41:59.539Z,18.00
2019-01-06T17:45:08.826Z,18.07
2019-01-06T17:48:16.881Z,17.77
2019-01-06T17:51:24.907Z,18.23
2019-01-06T17:54:32.322Z,18.00
2019-01-06T17:57:40.456Z,18.23
2019-01-06T18:00:48.270Z,18.70
2019-01-06T18:03:56.159Z,18.13
2019-01-06T18:07:04.891Z,17.93
2019-01-06T18:10:26.207Z,19.00
2019-01-06T18:13:38.463Z,19.70
2019-01-06T18:16:53.870Z,21.67
2019-01-06T18:20:15.276Z,20.73
2019-01-06T18:23:23.895Z,22.63
2019-01-06T18:26:33.101Z,25.53
2019-01-06T18:29:40.881Z,20.43
2019-01-06T18:32:52.978Z,20.43
2019-01-06T18:36:01.072Z,22.23
2019-01-06T18:39:16.421Z,22.97
2019-01-06T18:42:22.941Z,23.90
2019-01-06T18:45:41.575Z,25.20
2019-01-06T18:48:49.347Z,24.93
2019-01-06T18:51:54.918Z,23.40
2019-01-06T18:54:57.315Z,23.43
2019-01-06T18:58:06.567Z,26.40
2019-01-06T19:01:15.843Z,26.40
2019-01-06T19:04:24.064Z,23.93
2019-01-06T19:07:39.827Z,24.30
2019-01-06T19:10:48.049Z,28.13
2019-01-06T19:14:03.443Z,28.83
2019-01-06T19:17:11.683Z,26.83
2019-01-06T19:20:39.370Z,26.00
2019-01-06T19:23:58.318Z,28.13
2019-01-06T19:27:06.350Z,28.67
2019-01-06T19:30:14.711Z,27.87
2019-01-06T19:33:30.265Z,27.57
2019-01-06T19:36:39.170Z,27.40
2019-01-06T19:39:46.683Z,30.60
2019-01-06T19:43:01.538Z,29.47
2019-01-06T19:46:09.285Z,29.33
2019-01-06T19:49:17.505Z,32.83
2019-01-06T19:52:35.746Z,32.33
2019-01-06T19:55:43.826Z,34.23
2019-01-06T19:58:54.801Z,31.30
2019-01-06T20:02:04.102Z,32.27
2019-01-06T20:05:10.823Z,31.10
2019-01-06T20:08:19.153Z,32.23
2019-01-06T20:11:43.538Z,31.57
2019-01-06T20:14:52.536Z,30.43
2019-01-06T20:18:01.821Z,27.33
2019-01-06T20:21:09.934Z,28.30
2019-01-06T20:24:17.684Z,30.17
2019-01-06T20:27:26.271Z,28.20
2019-01-06T20:30:34.479Z,29.43
2019-01-06T20:33:42.315Z,28.30
2019-01-06T20:37:09.913Z,30.30
2019-01-06T20:40:37.402Z,32.27
2019-01-06T20:43:37.486Z,34.23
2019-01-06T20:46:49.694Z,34.67
2019-01-06T20:50:04.741Z,32.23
2019-01-06T20:53:13.770Z,30.87
2019-01-06T20:56:22.493Z,31.53
2019-01-06T20:59:49.963Z,30.77
2019-01-06T21:02:57.538Z,30.57
2019-01-06T21:06:06.513Z,33.53
2019-01-06T21:09:14.783Z,36.87
2019-01-06T21:12:20.050Z,34.20
2019-01-06T21:15:29.202Z,34.23
2019-01-06T21:18:37.362Z,34.73
2019-01-06T21:21:58.531Z,33.33
2019-01-06T21:25:06.210Z,32.50
2019-01-06T21:28:21.465Z,31.70
2019-01-06T21:31:26.933Z,29.33
2019-01-06T21:34:48.304Z,28.57
2019-01-06T21:37:56.412Z,28.73
2019-01-06T21:41:04.737Z,28.83
2019-01-06T21:44:13.762Z,26.40
2019-01-06T21:47:25.852Z,24.70
2019-01-06T21:50:44.547Z,24.70
2019-01-06T21:53:52.339Z,24.73
2019-01-06T21:57:00.396Z,26.50
2019-01-06T22:00:12.418Z,25.47
2019-01-06T22:03:20.603Z,25.73
2019-01-06T22:06:34.881Z,23.20
2019-01-06T22:09:43.156Z,23.43
2019-01-06T22:13:01.282Z,22.03
2019-01-06T22:16:25.590Z,22.50
2019-01-06T22:19:36.070Z,22.60
2019-01-06T22:22:45.294Z,21.80
2019-01-06T22:25:53.051Z,22.53
2019-01-06T22:29:00.816Z,21.33
2019-01-06T22:32:09.132Z,21.97
2019-01-06T22:35:30.499Z,20.53
2019-01-06T22:38:49.295Z,21.07
2019-01-06T22:41:57.638Z,20.67
2019-01-06T22:45:05.990Z,19.83
2019-01-06T22:48:24.298Z,19.17
2019-01-06T22:51:32.259Z,20.40
2019-01-06T22:54:40.188Z,18.73
2019-01-06T22:57:48.057Z,19.73
2019-01-06T23:00:55.126Z,19.37
2019-01-06T23:04:04.792Z,19.20
2019-01-06T23:07:12.927Z,19.43
2019-01-06T23:10:31.710Z,19.13
2019-01-06T23:13:48.562Z,18.00
2019-01-06T23:16:54.790Z,19.43
2019-01-06T23:19:55.650Z,18.27
2019-01-06T23:23:23.294Z,17.43
2019-01-06T23:26:32.388Z,16.73
2019-01-06T23:29:50.617Z,15.57
2019-01-06T23:33:11.027Z,17.07
2019-01-06T23:36:20.083Z,17.73
2019-01-06T23:39:27.698Z,18.90
2019-01-06T23:42:36.775Z,16.90
2019-01-06T23:45:44.158Z,16.53
2019-01-06T23:48:45.486Z,18.03
2019-01-06T23:51:53.665Z,17.07
2019-01-06T23:55:15.441Z,16.63
2019-01-06T23:58:33.821Z,17.07
